sensor_id;sensor_type;location;lat;lon;timestamp;pressure;altitude;pressure_sealevel;temperature;humidity
52469;BME280;38381;53.688;10.776;2023-02-22T00:02:31;101332.72;;;6.85;91.26
52469;BME280;38381;53.688;10.776;2023-02-22T00:07:33;101334.19;;;6.78;91.66
52469;BME280;38381;53.688;10.776;2023-02-22T00:12:34;101333.38;;;6.79;91.47
52469;BME280;38381;53.688;10.776;2023-02-22T00:17:35;101330.75;;;6.78;92.05
52469;BME280;38381;53.688;10.776;2023-02-22T00:22:36;101325.53;;;6.76;91.54
52469;BME280;38381;53.688;10.776;2023-02-22T00:27:37;101322.03;;;6.74;91.63
52469;BME280;38381;53.688;10.776;2023-02-22T00:32:37;101321.19;;;6.74;91.40
52469;BME280;38381;53.688;10.776;2023-02-22T00:37:37;101316.88;;;6.73;91.67
52469;BME280;38381;53.688;10.776;2023-02-22T00:42:41;101312.34;;;6.65;91.85
52469;BME280;38381;53.688;10.776;2023-02-22T00:47:41;101319.13;;;6.63;92.13
52469;BME280;38381;53.688;10.776;2023-02-22T00:52:42;101310.44;;;6.60;92.87
52469;BME280;38381;53.688;10.776;2023-02-22T00:57:42;101313.84;;;6.59;92.85
52469;BME280;38381;53.688;10.776;2023-02-22T01:02:43;101308.75;;;6.60;93.04
52469;BME280;38381;53.688;10.776;2023-02-22T01:07:44;101310.63;;;6.66;93.09
52469;BME280;38381;53.688;10.776;2023-02-22T01:12:45;101314.91;;;6.65;92.34
52469;BME280;38381;53.688;10.776;2023-02-22T01:17:47;101311.47;;;6.65;93.24
52469;BME280;38381;53.688;10.776;2023-02-22T01:22:49;101308.03;;;6.66;93.11
52469;BME280;38381;53.688;10.776;2023-02-22T01:27:50;101314.19;;;6.70;92.63
52469;BME280;38381;53.688;10.776;2023-02-22T01:32:51;101308.94;;;6.67;93.32
52469;BME280;38381;53.688;10.776;2023-02-22T01:37:52;101307.91;;;6.61;93.61
52469;BME280;38381;53.688;10.776;2023-02-22T01:42:55;101305.28;;;6.60;93.14
52469;BME280;38381;53.688;10.776;2023-02-22T01:48:23;101309.69;;;6.64;93.01
52469;BME280;38381;53.688;10.776;2023-02-22T01:53:25;101299.91;;;6.52;94.22
52469;BME280;38381;53.688;10.776;2023-02-22T01:58:29;101293.81;;;6.50;94.67
52469;BME280;38381;53.688;10.776;2023-02-22T02:03:34;101304.16;;;6.52;94.68
52469;BME280;38381;53.688;10.776;2023-02-22T02:08:41;101306.72;;;6.52;95.01
52469;BME280;38381;53.688;10.776;2023-02-22T02:13:49;101293.97;;;6.55;95.49
52469;BME280;38381;53.688;10.776;2023-02-22T02:18:51;101297.41;;;6.55;95.54
52469;BME280;38381;53.688;10.776;2023-02-22T02:34:54;101279.22;;;6.51;94.73
52469;BME280;38381;53.688;10.776;2023-02-22T02:39:59;101277.47;;;6.50;95.35
52469;BME280;38381;53.688;10.776;2023-02-22T02:45:20;101279.19;;;6.49;95.86
52469;BME280;38381;53.688;10.776;2023-02-22T02:50:31;101269.72;;;6.48;96.12
52469;BME280;38381;53.688;10.776;2023-02-22T02:55:33;101269.53;;;6.42;96.42
52469;BME280;38381;53.688;10.776;2023-02-22T03:00:38;101265.03;;;6.36;96.68
52469;BME280;38381;53.688;10.776;2023-02-22T03:06:03;101262.28;;;6.30;97.36
52469;BME280;38381;53.688;10.776;2023-02-22T03:11:10;101259.69;;;6.30;97.63
52469;BME280;38381;53.688;10.776;2023-02-22T03:16:44;101259.63;;;6.29;97.76
52469;BME280;38381;53.688;10.776;2023-02-22T03:22:01;101263.19;;;6.32;98.00
52469;BME280;38381;53.688;10.776;2023-02-22T03:27:10;101260.88;;;6.40;97.35
52469;BME280;38381;53.688;10.776;2023-02-22T03:32:15;101257.41;;;6.39;96.14
52469;BME280;38381;53.688;10.776;2023-02-22T03:37:19;101254.09;;;6.43;97.21
52469;BME280;38381;53.688;10.776;2023-02-22T03:42:30;101237.63;;;6.38;96.86
52469;BME280;38381;53.688;10.776;2023-02-22T03:47:37;101230.91;;;6.43;96.99
52469;BME280;38381;53.688;10.776;2023-02-22T03:52:40;101238.53;;;6.40;96.69
52469;BME280;38381;53.688;10.776;2023-02-22T03:57:51;101228.50;;;6.48;97.13
52469;BME280;38381;53.688;10.776;2023-02-22T04:02:53;101237.09;;;6.49;96.28
52469;BME280;38381;53.688;10.776;2023-02-22T04:07:55;101246.41;;;6.45;96.40
52469;BME280;38381;53.688;10.776;2023-02-22T04:12:55;101247.88;;;6.37;96.91
52469;BME280;38381;53.688;10.776;2023-02-22T04:17:56;101251.25;;;6.34;96.61
52469;BME280;38381;53.688;10.776;2023-02-22T04:22:56;101244.28;;;6.32;97.60
52469;BME280;38381;53.688;10.776;2023-02-22T04:27:57;101251.13;;;6.31;97.44
52469;BME280;38381;53.688;10.776;2023-02-22T04:32:57;101252.16;;;6.36;97.00
52469;BME280;38381;53.688;10.776;2023-02-22T04:37:58;101256.34;;;6.33;96.80
52469;BME280;38381;53.688;10.776;2023-02-22T04:42:58;101252.94;;;6.34;96.71
52469;BME280;38381;53.688;10.776;2023-02-22T04:47:59;101254.88;;;6.41;96.95
52469;BME280;38381;53.688;10.776;2023-02-22T04:52:59;101252.41;;;6.44;96.72
52469;BME280;38381;53.688;10.776;2023-02-22T04:58:01;101256.34;;;6.33;97.30
52469;BME280;38381;53.688;10.776;2023-02-22T05:03:01;101251.78;;;6.24;97.23
52469;BME280;38381;53.688;10.776;2023-02-22T05:08:01;101253.69;;;6.31;97.13
52469;BME280;38381;53.688;10.776;2023-02-22T05:13:03;101251.09;;;6.30;97.14
52469;BME280;38381;53.688;10.776;2023-02-22T05:18:05;101242.44;;;6.28;96.79
52469;BME280;38381;53.688;10.776;2023-02-22T05:23:06;101251.44;;;6.13;98.16
52469;BME280;38381;53.688;10.776;2023-02-22T05:28:11;101245.75;;;6.23;97.88
52469;BME280;38381;53.688;10.776;2023-02-22T05:33:11;101243.91;;;6.19;97.20
52469;BME280;38381;53.688;10.776;2023-02-22T05:38:12;101250.72;;;6.19;97.07
52469;BME280;38381;53.688;10.776;2023-02-22T05:43:14;101249.88;;;6.18;97.29
52469;BME280;38381;53.688;10.776;2023-02-22T05:48:14;101241.53;;;6.00;99.47
52469;BME280;38381;53.688;10.776;2023-02-22T05:53:15;101243.09;;;5.95;99.69
52469;BME280;38381;53.688;10.776;2023-02-22T05:58:16;101243.97;;;5.95;100.00
52469;BME280;38381;53.688;10.776;2023-02-22T06:03:16;101249.28;;;6.00;100.00
52469;BME280;38381;53.688;10.776;2023-02-22T06:08:17;101249.88;;;5.93;100.00
52469;BME280;38381;53.688;10.776;2023-02-22T06:13:17;101253.41;;;5.95;100.00
52469;BME280;38381;53.688;10.776;2023-02-22T06:18:17;101244.97;;;5.99;100.00
52469;BME280;38381;53.688;10.776;2023-02-22T06:23:18;101253.91;;;6.10;100.00
52469;BME280;38381;53.688;10.776;2023-02-22T06:28:18;101252.91;;;6.07;100.00
52469;BME280;38381;53.688;10.776;2023-02-22T06:33:19;101255.16;;;6.23;99.44
52469;BME280;38381;53.688;10.776;2023-02-22T06:38:23;101255.94;;;6.20;100.00
52469;BME280;38381;53.688;10.776;2023-02-22T06:43:24;101244.72;;;6.18;100.00
52469;BME280;38381;53.688;10.776;2023-02-22T06:48:24;101250.13;;;6.26;100.00
52469;BME280;38381;53.688;10.776;2023-02-22T06:53:25;101248.16;;;6.19;100.00
52469;BME280;38381;53.688;10.776;2023-02-22T06:58:25;101243.72;;;6.15;100.00
52469;BME280;38381;53.688;10.776;2023-02-22T07:03:26;101241.94;;;6.12;100.00
52469;BME280;38381;53.688;10.776;2023-02-22T07:08:27;101242.13;;;6.18;100.00
52469;BME280;38381;53.688;10.776;2023-02-22T07:13:28;101242.53;;;6.31;100.00
52469;BME280;38381;53.688;10.776;2023-02-22T07:18:28;101253.38;;;6.20;100.00
52469;BME280;38381;53.688;10.776;2023-02-22T07:23:29;101257.00;;;6.27;100.00
52469;BME280;38381;53.688;10.776;2023-02-22T07:28:29;101254.50;;;6.29;100.00
52469;BME280;38381;53.688;10.776;2023-02-22T07:33:30;101251.19;;;6.33;100.00
52469;BME280;38381;53.688;10.776;2023-02-22T07:38:30;101256.53;;;6.39;100.00
52469;BME280;38381;53.688;10.776;2023-02-22T07:43:31;101258.97;;;6.34;100.00
52469;BME280;38381;53.688;10.776;2023-02-22T07:48:32;101259.09;;;6.39;100.00
52469;BME280;38381;53.688;10.776;2023-02-22T07:53:33;101260.16;;;6.45;100.00
52469;BME280;38381;53.688;10.776;2023-02-22T07:58:33;101260.69;;;6.35;100.00
52469;BME280;38381;53.688;10.776;2023-02-22T08:03:35;101258.81;;;6.30;100.00
52469;BME280;38381;53.688;10.776;2023-02-22T08:08:35;101262.53;;;6.38;100.00
52469;BME280;38381;53.688;10.776;2023-02-22T08:13:37;101256.63;;;6.42;100.00
52469;BME280;38381;53.688;10.776;2023-02-22T08:18:38;101260.16;;;6.45;100.00
52469;BME280;38381;53.688;10.776;2023-02-22T08:23:40;101256.81;;;6.48;100.00
52469;BME280;38381;53.688;10.776;2023-02-22T08:28:40;101246.59;;;6.51;100.00
52469;BME280;38381;53.688;10.776;2023-02-22T08:33:41;101248.84;;;6.40;100.00
52469;BME280;38381;53.688;10.776;2023-02-22T08:38:41;101242.44;;;6.55;100.00
52469;BME280;38381;53.688;10.776;2023-02-22T08:43:42;101242.47;;;6.56;100.00
52469;BME280;38381;53.688;10.776;2023-02-22T08:48:50;101238.78;;;6.48;100.00
52469;BME280;38381;53.688;10.776;2023-02-22T08:53:50;101234.00;;;6.60;100.00
52469;BME280;38381;53.688;10.776;2023-02-22T08:58:52;101231.81;;;6.73;100.00
52469;BME280;38381;53.688;10.776;2023-02-22T09:03:53;101226.16;;;6.86;100.00
52469;BME280;38381;53.688;10.776;2023-02-22T09:08:55;101224.59;;;6.91;100.00
52469;BME280;38381;53.688;10.776;2023-02-22T09:13:55;101224.38;;;7.14;100.00
52469;BME280;38381;53.688;10.776;2023-02-22T09:18:56;101215.22;;;7.25;99.68
52469;BME280;38381;53.688;10.776;2023-02-22T09:23:57;101213.38;;;7.21;98.63
52469;BME280;38381;53.688;10.776;2023-02-22T09:28:57;101209.19;;;7.24;100.00
52469;BME280;38381;53.688;10.776;2023-02-22T09:33:59;101205.34;;;7.10;100.00
52469;BME280;38381;53.688;10.776;2023-02-22T09:38:59;101196.19;;;7.20;99.96
52469;BME280;38381;53.688;10.776;2023-02-22T09:44:28;101192.28;;;7.36;99.54
52469;BME280;38381;53.688;10.776;2023-02-22T09:49:42;101190.59;;;7.36;100.00
52469;BME280;38381;53.688;10.776;2023-02-22T09:55:03;101190.44;;;7.63;99.55
52469;BME280;38381;53.688;10.776;2023-02-22T10:00:14;101193.97;;;7.67;99.06
52469;BME280;38381;53.688;10.776;2023-02-22T10:05:24;101195.47;;;7.59;98.67
52469;BME280;38381;53.688;10.776;2023-02-22T10:10:31;101198.22;;;7.66;98.83
52469;BME280;38381;53.688;10.776;2023-02-22T10:26:43;101181.34;;;8.16;96.62
52469;BME280;38381;53.688;10.776;2023-02-22T10:31:47;101175.22;;;8.11;96.91
52469;BME280;38381;53.688;10.776;2023-02-22T10:37:23;101173.44;;;8.10;96.76
52469;BME280;38381;53.688;10.776;2023-02-22T10:42:26;101174.50;;;8.18;96.41
52469;BME280;38381;53.688;10.776;2023-02-22T10:47:28;101166.78;;;8.19;96.48
52469;BME280;38381;53.688;10.776;2023-02-22T10:52:31;101160.94;;;8.28;96.11
52469;BME280;38381;53.688;10.776;2023-02-22T10:57:35;101160.09;;;8.27;96.30
52469;BME280;38381;53.688;10.776;2023-02-22T11:02:36;101148.19;;;8.36;95.78
52469;BME280;38381;53.688;10.776;2023-02-22T11:07:36;101155.59;;;8.58;94.97
52469;BME280;38381;53.688;10.776;2023-02-22T11:12:39;101160.34;;;8.78;94.43
52469;BME280;38381;53.688;10.776;2023-02-22T11:17:42;101151.22;;;8.97;93.15
52469;BME280;38381;53.688;10.776;2023-02-22T11:22:44;101152.28;;;8.64;93.67
52469;BME280;38381;53.688;10.776;2023-02-22T11:27:44;101148.34;;;8.83;93.22
52469;BME280;38381;53.688;10.776;2023-02-22T11:32:53;101138.09;;;8.88;93.15
52469;BME280;38381;53.688;10.776;2023-02-22T11:38:10;101127.69;;;8.84;93.56
52469;BME280;38381;53.688;10.776;2023-02-22T11:43:17;101125.69;;;8.71;93.00
52469;BME280;38381;53.688;10.776;2023-02-22T11:48:18;101110.22;;;8.73;93.31
52469;BME280;38381;53.688;10.776;2023-02-22T11:58:55;101087.06;;;8.79;92.35
52469;BME280;38381;53.688;10.776;2023-02-22T12:04:14;101083.81;;;8.89;91.82
52469;BME280;38381;53.688;10.776;2023-02-22T12:19:50;101067.22;;;8.78;92.01
52469;BME280;38381;53.688;10.776;2023-02-22T12:25:20;101062.63;;;8.61;93.22
52469;BME280;38381;53.688;10.776;2023-02-22T12:30:33;101063.00;;;8.83;93.11
52469;BME280;38381;53.688;10.776;2023-02-22T12:35:39;101052.09;;;8.99;92.61
52469;BME280;38381;53.688;10.776;2023-02-22T12:46:15;101045.88;;;8.90;92.27
52469;BME280;38381;53.688;10.776;2023-02-22T12:56:30;101043.47;;;8.99;90.87
52469;BME280;38381;53.688;10.776;2023-02-22T13:01:45;101047.88;;;9.06;89.90
52469;BME280;38381;53.688;10.776;2023-02-22T13:12:18;101028.38;;;9.26;88.69
52469;BME280;38381;53.688;10.776;2023-02-22T13:17:53;101024.09;;;9.29;89.07
52469;BME280;38381;53.688;10.776;2023-02-22T13:23:09;101015.91;;;9.56;87.93
52469;BME280;38381;53.688;10.776;2023-02-22T13:28:37;101009.06;;;9.61;87.04
52469;BME280;38381;53.688;10.776;2023-02-22T13:33:53;100994.72;;;9.86;85.78
52469;BME280;38381;53.688;10.776;2023-02-22T13:55:50;100990.28;;;9.74;84.64
52469;BME280;38381;53.688;10.776;2023-02-22T14:05:55;100985.84;;;9.67;84.91
52469;BME280;38381;53.688;10.776;2023-02-22T14:11:01;100988.69;;;9.85;84.14
52469;BME280;38381;53.688;10.776;2023-02-22T14:21:09;100991.41;;;9.95;84.81
52469;BME280;38381;53.688;10.776;2023-02-22T14:31:20;100989.66;;;9.94;84.63
52469;BME280;38381;53.688;10.776;2023-02-22T14:36:24;100985.41;;;9.99;84.38
52469;BME280;38381;53.688;10.776;2023-02-22T14:41:28;100985.19;;;9.80;83.65
52469;BME280;38381;53.688;10.776;2023-02-22T14:46:33;100985.84;;;9.67;84.13
52469;BME280;38381;53.688;10.776;2023-02-22T14:51:48;100974.59;;;9.65;84.37
52469;BME280;38381;53.688;10.776;2023-02-22T14:57:07;100971.19;;;9.69;84.87
52469;BME280;38381;53.688;10.776;2023-02-22T15:02:13;100965.09;;;9.64;85.54
52469;BME280;38381;53.688;10.776;2023-02-22T15:07:29;100963.22;;;9.54;85.74
52469;BME280;38381;53.688;10.776;2023-02-22T15:12:30;100966.59;;;9.48;86.48
52469;BME280;38381;53.688;10.776;2023-02-22T15:17:30;100956.19;;;9.43;87.16
52469;BME280;38381;53.688;10.776;2023-02-22T15:22:34;100959.75;;;9.53;86.91
52469;BME280;38381;53.688;10.776;2023-02-22T15:27:36;100963.81;;;9.34;87.70
52469;BME280;38381;53.688;10.776;2023-02-22T15:32:39;100962.94;;;9.34;88.24
52469;BME280;38381;53.688;10.776;2023-02-22T15:37:39;100962.09;;;9.33;88.38
52469;BME280;38381;53.688;10.776;2023-02-22T15:42:48;100959.31;;;9.21;88.71
52469;BME280;38381;53.688;10.776;2023-02-22T15:47:50;100961.88;;;9.19;89.30
52469;BME280;38381;53.688;10.776;2023-02-22T15:58:09;100962.59;;;9.12;89.19
52469;BME280;38381;53.688;10.776;2023-02-22T16:03:13;100960.91;;;9.14;89.08
52469;BME280;38381;53.688;10.776;2023-02-22T16:08:21;100960.81;;;9.06;89.38
52469;BME280;38381;53.688;10.776;2023-02-22T16:13:25;100955.63;;;9.06;89.40
52469;BME280;38381;53.688;10.776;2023-02-22T16:18:34;100961.50;;;8.96;89.59
52469;BME280;38381;53.688;10.776;2023-02-22T16:28:58;100959.78;;;8.97;89.53
52469;BME280;38381;53.688;10.776;2023-02-22T16:34:00;100953.75;;;8.96;89.26
52469;BME280;38381;53.688;10.776;2023-02-22T16:39:01;100956.34;;;8.96;89.36
52469;BME280;38381;53.688;10.776;2023-02-22T16:44:01;100955.31;;;8.86;89.61
52469;BME280;38381;53.688;10.776;2023-02-22T16:49:02;100956.06;;;8.81;89.99
52469;BME280;38381;53.688;10.776;2023-02-22T16:54:04;100959.31;;;8.69;90.86
52469;BME280;38381;53.688;10.776;2023-02-22T16:59:09;100950.72;;;8.70;90.59
52469;BME280;38381;53.688;10.776;2023-02-22T17:04:18;100954.13;;;8.68;90.65
52469;BME280;38381;53.688;10.776;2023-02-22T17:09:19;100956.41;;;8.51;91.38
52469;BME280;38381;53.688;10.776;2023-02-22T17:14:28;100958.88;;;8.43;91.79
52469;BME280;38381;53.688;10.776;2023-02-22T17:19:29;100949.28;;;8.40;92.06
52469;BME280;38381;53.688;10.776;2023-02-22T17:24:30;100951.13;;;8.43;92.29
52469;BME280;38381;53.688;10.776;2023-02-22T17:29:33;100956.19;;;8.40;92.46
52469;BME280;38381;53.688;10.776;2023-02-22T17:34:33;100944.13;;;8.39;92.71
52469;BME280;38381;53.688;10.776;2023-02-22T17:39:34;100944.91;;;8.36;92.02
52469;BME280;38381;53.688;10.776;2023-02-22T17:44:34;100949.88;;;8.25;93.07
52469;BME280;38381;53.688;10.776;2023-02-22T17:49:34;100949.03;;;8.25;92.57
52469;BME280;38381;53.688;10.776;2023-02-22T17:54:35;100943.75;;;8.19;92.67
52469;BME280;38381;53.688;10.776;2023-02-22T17:59:35;100943.66;;;8.16;92.85
52469;BME280;38381;53.688;10.776;2023-02-22T18:04:36;100946.34;;;8.20;92.20
52469;BME280;38381;53.688;10.776;2023-02-22T18:09:38;100953.91;;;8.11;92.49
52469;BME280;38381;53.688;10.776;2023-02-22T18:14:41;100940.84;;;8.03;92.69
52469;BME280;38381;53.688;10.776;2023-02-22T18:19:41;100961.41;;;7.99;92.95
52469;BME280;38381;53.688;10.776;2023-02-22T18:24:42;100959.75;;;8.01;92.92
52469;BME280;38381;53.688;10.776;2023-02-22T18:29:42;100969.94;;;7.95;92.55
52469;BME280;38381;53.688;10.776;2023-02-22T18:34:43;100968.22;;;7.94;92.80
52469;BME280;38381;53.688;10.776;2023-02-22T18:39:44;100970.06;;;8.01;92.31
52469;BME280;38381;53.688;10.776;2023-02-22T18:44:45;100960.38;;;7.91;92.73
52469;BME280;38381;53.688;10.776;2023-02-22T18:49:46;100962.94;;;7.88;92.58
52469;BME280;38381;53.688;10.776;2023-02-22T18:54:48;100959.44;;;7.85;92.37
52469;BME280;38381;53.688;10.776;2023-02-22T18:59:49;100965.31;;;7.78;92.43
52469;BME280;38381;53.688;10.776;2023-02-22T19:04:49;100963.38;;;7.68;92.87
52469;BME280;38381;53.688;10.776;2023-02-22T19:09:50;100959.06;;;7.69;92.49
52469;BME280;38381;53.688;10.776;2023-02-22T19:14:50;100953.81;;;7.64;92.72
52469;BME280;38381;53.688;10.776;2023-02-22T19:19:51;100953.69;;;7.58;92.88
52469;BME280;38381;53.688;10.776;2023-02-22T19:24:52;100954.69;;;7.64;92.24
52469;BME280;38381;53.688;10.776;2023-02-22T19:29:53;100950.06;;;7.50;92.66
52469;BME280;38381;53.688;10.776;2023-02-22T19:34:53;100946.56;;;7.48;92.74
52469;BME280;38381;53.688;10.776;2023-02-22T19:40:03;100941.38;;;7.44;92.19
52469;BME280;38381;53.688;10.776;2023-02-22T19:45:06;100941.38;;;7.44;92.61
52469;BME280;38381;53.688;10.776;2023-02-22T19:50:07;100945.53;;;7.39;92.13
52469;BME280;38381;53.688;10.776;2023-02-22T19:55:08;100937.75;;;7.36;92.85
52469;BME280;38381;53.688;10.776;2023-02-22T20:00:12;100941.94;;;7.33;93.00
52469;BME280;38381;53.688;10.776;2023-02-22T20:05:21;100940.34;;;7.38;92.88
52469;BME280;38381;53.688;10.776;2023-02-22T20:10:21;100947.06;;;7.31;92.57
52469;BME280;38381;53.688;10.776;2023-02-22T20:15:22;100946.59;;;7.11;93.58
52469;BME280;38381;53.688;10.776;2023-02-22T20:20:23;100943.31;;;7.17;93.31
52469;BME280;38381;53.688;10.776;2023-02-22T20:25:25;100948.41;;;7.15;93.70
52469;BME280;38381;53.688;10.776;2023-02-22T20:30:25;100944.06;;;7.13;93.71
52469;BME280;38381;53.688;10.776;2023-02-22T20:35:26;100939.00;;;7.16;93.52
52469;BME280;38381;53.688;10.776;2023-02-22T20:40:27;100942.22;;;7.07;94.16
52469;BME280;38381;53.688;10.776;2023-02-22T20:45:27;100940.34;;;7.00;94.02
52469;BME280;38381;53.688;10.776;2023-02-22T20:50:28;100937.91;;;7.06;93.88
52469;BME280;38381;53.688;10.776;2023-02-22T20:55:28;100932.59;;;7.00;93.98
52469;BME280;38381;53.688;10.776;2023-02-22T21:00:29;100928.88;;;6.87;94.63
52469;BME280;38381;53.688;10.776;2023-02-22T21:05:29;100927.09;;;6.86;94.86
52469;BME280;38381;53.688;10.776;2023-02-22T21:10:38;100929.00;;;6.93;94.76
52469;BME280;38381;53.688;10.776;2023-02-22T21:15:39;100921.78;;;6.80;94.92
52469;BME280;38381;53.688;10.776;2023-02-22T21:20:42;100922.66;;;6.80;95.13
52469;BME280;38381;53.688;10.776;2023-02-22T21:25:50;100921.13;;;6.87;95.14
52469;BME280;38381;53.688;10.776;2023-02-22T21:30:51;100921.75;;;6.78;95.01
52469;BME280;38381;53.688;10.776;2023-02-22T21:35:51;100916.53;;;6.75;94.55
52469;BME280;38381;53.688;10.776;2023-02-22T21:40:52;100920.59;;;6.65;95.59
52469;BME280;38381;53.688;10.776;2023-02-22T21:46:01;100917.19;;;6.67;95.11
52469;BME280;38381;53.688;10.776;2023-02-22T21:51:13;100906.69;;;6.59;95.55
52469;BME280;38381;53.688;10.776;2023-02-22T21:56:16;100898.81;;;6.53;95.52
52469;BME280;38381;53.688;10.776;2023-02-22T22:01:20;100906.56;;;6.54;95.50
52469;BME280;38381;53.688;10.776;2023-02-22T22:06:21;100898.69;;;6.48;95.50
52469;BME280;38381;53.688;10.776;2023-02-22T22:11:21;100907.34;;;6.50;95.56
52469;BME280;38381;53.688;10.776;2023-02-22T22:16:24;100896.03;;;6.45;95.13
52469;BME280;38381;53.688;10.776;2023-02-22T22:21:25;100899.34;;;6.41;95.69
52469;BME280;38381;53.688;10.776;2023-02-22T22:26:26;100904.59;;;6.44;95.27
52469;BME280;38381;53.688;10.776;2023-02-22T22:31:26;100897.47;;;6.35;94.98
52469;BME280;38381;53.688;10.776;2023-02-22T22:36:27;100898.41;;;6.37;95.36
52469;BME280;38381;53.688;10.776;2023-02-22T22:41:27;100892.34;;;6.35;94.80
52469;BME280;38381;53.688;10.776;2023-02-22T22:46:28;100890.50;;;6.31;95.56
52469;BME280;38381;53.688;10.776;2023-02-22T22:51:28;100885.25;;;6.27;95.23
52469;BME280;38381;53.688;10.776;2023-02-22T22:56:30;100877.53;;;6.27;95.33
52469;BME280;38381;53.688;10.776;2023-02-22T23:01:36;100883.63;;;6.30;94.55
52469;BME280;38381;53.688;10.776;2023-02-22T23:06:40;100880.34;;;6.36;94.48
52469;BME280;38381;53.688;10.776;2023-02-22T23:11:42;100873.06;;;6.19;94.62
52469;BME280;38381;53.688;10.776;2023-02-22T23:16:44;100883.63;;;6.30;94.72
52469;BME280;38381;53.688;10.776;2023-02-22T23:21:46;100878.28;;;6.22;94.02
52469;BME280;38381;53.688;10.776;2023-02-22T23:26:47;100881.53;;;6.15;94.56
52469;BME280;38381;53.688;10.776;2023-02-22T23:31:48;100882.25;;;6.10;94.42
52469;BME280;38381;53.688;10.776;2023-02-22T23:36:50;100881.44;;;6.12;94.79
52469;BME280;38381;53.688;10.776;2023-02-22T23:41:55;100881.44;;;6.12;94.40
52469;BME280;38381;53.688;10.776;2023-02-22T23:46:58;100884.13;;;6.17;94.46
52469;BME280;38381;53.688;10.776;2023-02-22T23:51:59;100885.94;;;6.19;94.32
52469;BME280;38381;53.688;10.776;2023-02-22T23:56:59;100885.94;;;6.21;93.84
